createdAt,value
2022-09-21T00:02:27.531Z,7.73
2022-09-21T00:05:17.171Z,7.65
2022-09-21T00:08:06.786Z,7.61
2022-09-21T00:10:54.656Z,7.51
2022-09-21T00:13:43.355Z,7.43
2022-09-21T00:16:32.679Z,7.35
2022-09-21T00:19:20.563Z,7.27
2022-09-21T00:22:09.805Z,7.28
2022-09-21T00:24:57.867Z,7.27
2022-09-21T00:27:47.754Z,7.23
2022-09-21T00:30:35.656Z,7.10
2022-09-21T00:33:24.578Z,7.10
2022-09-21T00:36:14.638Z,7.09
2022-09-21T00:39:04.721Z,7.01
2022-09-21T00:41:53.596Z,6.95
2022-09-21T00:44:41.459Z,6.90
2022-09-21T00:47:34.195Z,6.85
2022-09-21T00:50:25.029Z,6.86
2022-09-21T00:53:12.965Z,6.83
2022-09-21T00:56:04.886Z,6.28
2022-09-21T00:58:55.395Z,6.76
2022-09-21T01:01:43.674Z,6.74
2022-09-21T01:04:32.591Z,6.70
2022-09-21T01:07:26.204Z,6.60
2022-09-21T01:10:18.381Z,6.61
2022-09-21T01:13:17.926Z,6.59
2022-09-21T01:16:13.859Z,6.51
2022-09-21T01:19:13.929Z,6.45
2022-09-21T01:22:09.419Z,6.48
2022-09-21T01:25:10.241Z,6.45
2022-09-21T01:28:08.347Z,6.60
2022-09-21T01:31:05.987Z,6.58
2022-09-21T01:33:58.408Z,6.53
2022-09-21T01:36:49.215Z,6.53
2022-09-21T01:39:39.805Z,6.53
2022-09-21T01:42:30.996Z,6.52
2022-09-21T01:45:21.952Z,6.44
2022-09-21T01:48:13.616Z,6.48
2022-09-21T01:51:06.344Z,6.27
2022-09-21T01:53:58.564Z,6.49
2022-09-21T01:56:52.096Z,6.49
2022-09-21T01:59:50.141Z,6.44
2022-09-21T02:02:43.069Z,6.51
2022-09-21T02:05:33.030Z,6.55
2022-09-21T02:08:21.211Z,6.51
2022-09-21T02:11:12.654Z,6.55
2022-09-21T02:14:00.839Z,6.58
2022-09-21T02:16:58.353Z,6.63
2022-09-21T02:19:50.832Z,6.72
2022-09-21T02:22:45.404Z,6.70
2022-09-21T02:25:42.400Z,6.64
2022-09-21T02:28:45.375Z,6.53
2022-09-21T02:31:39.876Z,6.46
2022-09-21T02:34:34.329Z,6.40
2022-09-21T02:37:31.134Z,6.37
2022-09-21T02:40:26.831Z,6.38
2022-09-21T02:43:22.746Z,6.42
2022-09-21T02:46:15.996Z,6.36
2022-09-21T02:49:09.137Z,6.38
2022-09-21T02:52:00.144Z,6.41
2022-09-21T02:54:52.052Z,6.54
2022-09-21T02:57:42.126Z,6.46
2022-09-21T03:00:30.456Z,6.43
2022-09-21T03:03:20.436Z,6.37
2022-09-21T03:06:08.607Z,6.31
2022-09-21T03:08:58.479Z,6.30
2022-09-21T03:11:46.429Z,6.29
2022-09-21T03:14:35.640Z,6.26
2022-09-21T03:17:23.524Z,6.19
2022-09-21T03:20:11.381Z,6.10
2022-09-21T03:22:59.332Z,6.12
2022-09-21T03:25:48.003Z,6.08
2022-09-21T03:28:35.870Z,6.04
2022-09-21T03:31:25.113Z,6.07
2022-09-21T03:34:13.514Z,6.06
2022-09-21T03:37:01.757Z,6.03
2022-09-21T03:39:49.662Z,6.04
2022-09-21T03:42:37.543Z,6.00
2022-09-21T03:45:27.270Z,6.00
2022-09-21T03:48:16.700Z,6.03
2022-09-21T03:51:04.911Z,6.01
2022-09-21T03:53:52.798Z,6.00
2022-09-21T03:56:40.678Z,6.01
2022-09-21T03:59:28.604Z,5.99
2022-09-21T04:02:16.831Z,5.99
2022-09-21T04:05:07.709Z,6.14
2022-09-21T04:07:57.204Z,6.28
2022-09-21T04:10:45.091Z,6.30
2022-09-21T04:13:35.187Z,6.28
2022-09-21T04:16:24.152Z,6.47
2022-09-21T04:19:12.235Z,6.58
2022-09-21T04:22:01.464Z,6.64
2022-09-21T04:24:49.385Z,6.65
2022-09-21T04:27:37.257Z,6.69
2022-09-21T04:30:25.147Z,6.71
2022-09-21T04:33:14.148Z,6.70
2022-09-21T04:36:02.319Z,6.78
2022-09-21T04:38:52.423Z,6.78
2022-09-21T04:41:40.412Z,6.84
2022-09-21T04:44:28.322Z,6.72
2022-09-21T04:47:16.247Z,6.64
2022-09-21T04:50:04.675Z,6.55
2022-09-21T04:52:52.579Z,6.41
2022-09-21T04:55:41.809Z,6.39
2022-09-21T04:58:29.739Z,6.41
2022-09-21T05:01:17.676Z,6.43
2022-09-21T05:04:05.704Z,6.45
2022-09-21T05:06:54.029Z,6.51
2022-09-21T05:09:59.690Z,6.52
2022-09-21T05:12:48.944Z,6.56
2022-09-21T05:15:38.260Z,6.48
2022-09-21T05:18:26.138Z,6.46
2022-09-21T05:21:15.395Z,6.46
2022-09-21T05:24:03.624Z,6.54
2022-09-21T05:26:51.521Z,6.61
2022-09-21T05:29:41.867Z,6.64
2022-09-21T05:32:42.326Z,6.63
2022-09-21T05:35:36.651Z,6.63
2022-09-21T05:38:25.036Z,6.60
2022-09-21T05:41:13.583Z,6.59
2022-09-21T05:44:02.076Z,6.51
2022-09-21T05:46:59.053Z,6.49
2022-09-21T05:49:56.263Z,6.44
2022-09-21T05:52:52.425Z,6.37
2022-09-21T05:55:53.024Z,6.37
2022-09-21T05:58:48.443Z,6.37
2022-09-21T06:01:50.943Z,6.40
2022-09-21T06:04:20.446Z,6.47
2022-09-21T06:06:48.041Z,6.56
2022-09-21T06:09:15.643Z,6.61
2022-09-21T06:11:43.291Z,6.77
2022-09-21T06:14:10.877Z,6.92
2022-09-21T06:16:39.673Z,7.05
2022-09-21T06:19:07.486Z,7.20
2022-09-21T06:21:36.410Z,7.39
2022-09-21T06:24:04.388Z,7.48
2022-09-21T06:26:31.994Z,7.50
2022-09-21T06:29:00.217Z,7.62
2022-09-21T06:31:28.034Z,7.73
2022-09-21T06:33:55.647Z,7.76
2022-09-21T06:36:23.422Z,7.83
2022-09-21T06:38:52.359Z,7.83
2022-09-21T06:41:21.382Z,7.97
2022-09-21T06:43:49.300Z,8.03
2022-09-21T06:46:16.962Z,8.10
2022-09-21T06:48:44.688Z,8.12
2022-09-21T06:51:12.286Z,8.19
2022-09-21T06:53:39.893Z,8.33
2022-09-21T06:56:11.225Z,8.35
2022-09-21T06:58:38.902Z,8.52
2022-09-21T07:01:08.337Z,8.57
2022-09-21T07:03:36.663Z,8.72
2022-09-21T07:06:04.452Z,8.87
2022-09-21T07:11:22.021Z,9.12
2022-09-21T07:13:49.589Z,9.32
2022-09-21T07:16:18.655Z,9.49
2022-09-21T07:18:46.510Z,9.70
2022-09-21T07:21:14.723Z,9.88
2022-09-21T07:23:42.590Z,9.94
2022-09-21T07:26:12.782Z,9.93
2022-09-21T07:28:42.282Z,10.05
2022-09-21T07:31:12.111Z,9.69
2022-09-21T07:33:40.069Z,10.20
2022-09-21T07:36:11.730Z,10.34
2022-09-21T07:38:40.935Z,10.46
2022-09-21T07:41:08.879Z,10.51
2022-09-21T07:43:39.206Z,10.53
2022-09-21T07:46:09.246Z,10.56
2022-09-21T07:48:37.230Z,10.71
2022-09-21T07:51:06.302Z,10.88
2022-09-21T07:53:34.549Z,11.13
2022-09-21T07:56:03.374Z,11.28
2022-09-21T07:58:48.938Z,11.21
2022-09-21T08:01:18.032Z,11.42
2022-09-21T08:03:45.795Z,11.46
2022-09-21T08:06:13.346Z,11.58
2022-09-21T08:08:41.627Z,11.74
2022-09-21T08:11:11.754Z,11.80
2022-09-21T08:13:39.376Z,12.02
2022-09-21T08:16:07.726Z,12.09
2022-09-21T08:18:39.629Z,12.17
2022-09-21T08:21:08.481Z,12.24
2022-09-21T08:23:40.156Z,12.55
2022-09-21T08:26:08.390Z,12.67
2022-09-21T08:28:36.540Z,12.91
2022-09-21T08:31:05.964Z,12.82
2022-09-21T08:33:33.665Z,12.96
2022-09-21T08:36:03.445Z,12.98
2022-09-21T08:38:35.468Z,12.95
2022-09-21T08:41:04.343Z,12.67
2022-09-21T08:43:36.999Z,13.27
2022-09-21T08:46:08.818Z,13.44
2022-09-21T08:48:41.148Z,13.45
2022-09-21T08:51:14.071Z,13.36
2022-09-21T08:53:44.751Z,13.74
2022-09-21T08:56:14.121Z,13.85
2022-09-21T08:58:42.343Z,13.90
2022-09-21T09:01:29.590Z,13.84
2022-09-21T09:04:19.513Z,14.00
2022-09-21T09:06:57.838Z,14.29
2022-09-21T09:09:40.886Z,14.28
2022-09-21T09:12:20.373Z,14.35
2022-09-21T09:15:08.615Z,14.39
2022-09-21T09:17:50.856Z,14.41
2022-09-21T09:20:31.054Z,14.37
2022-09-21T09:23:07.969Z,14.55
2022-09-21T09:25:38.787Z,14.70
2022-09-21T09:28:23.554Z,14.94
2022-09-21T09:30:58.549Z,15.10
2022-09-21T09:33:31.489Z,15.27
2022-09-21T09:36:03.391Z,15.40
2022-09-21T09:38:38.020Z,15.53
2022-09-21T09:41:19.391Z,15.62
2022-09-21T09:44:00.312Z,15.61
2022-09-21T09:46:34.791Z,15.86
2022-09-21T09:49:17.525Z,15.82
2022-09-21T09:51:47.061Z,15.79
2022-09-21T09:54:17.280Z,15.80
2022-09-21T09:56:45.308Z,16.05
2022-09-21T09:59:25.632Z,15.83
2022-09-21T10:02:01.762Z,15.92
2022-09-21T10:04:29.763Z,16.23
2022-09-21T10:06:58.789Z,16.30
2022-09-21T10:09:29.260Z,16.28
2022-09-21T10:12:00.749Z,16.41
2022-09-21T10:14:33.660Z,16.71
2022-09-21T10:17:06.844Z,16.61
2022-09-21T10:19:34.930Z,16.11
2022-09-21T10:22:05.870Z,15.98
2022-09-21T10:24:37.417Z,15.89
2022-09-21T10:27:10.252Z,16.26
2022-09-21T10:29:44.146Z,16.52
2022-09-21T10:32:24.710Z,16.74
2022-09-21T10:35:16.660Z,17.36
2022-09-21T10:37:53.583Z,17.83
2022-09-21T10:40:26.931Z,17.85
2022-09-21T10:42:56.259Z,18.14
2022-09-21T10:45:26.443Z,18.36
2022-09-21T10:47:57.242Z,18.53
2022-09-21T10:50:28.572Z,18.75
2022-09-21T10:53:01.772Z,18.75
2022-09-21T10:55:32.888Z,18.83
2022-09-21T10:58:01.048Z,18.97
2022-09-21T11:00:42.958Z,19.18
2022-09-21T11:03:48.000Z,19.01
2022-09-21T11:06:19.388Z,18.33
2022-09-21T11:08:56.038Z,17.54
2022-09-21T11:11:47.586Z,17.98
2022-09-21T11:14:28.905Z,18.61
2022-09-21T11:16:59.063Z,18.59
2022-09-21T11:19:34.664Z,18.85
2022-09-21T11:22:08.574Z,19.11
2022-09-21T11:24:45.970Z,19.02
2022-09-21T11:27:18.779Z,18.93
2022-09-21T11:29:55.314Z,19.32
2022-09-21T11:32:38.707Z,19.49
2022-09-21T11:35:28.902Z,19.48
2022-09-21T11:38:06.035Z,19.27
2022-09-21T11:40:48.839Z,19.58
2022-09-21T11:43:33.121Z,19.72
2022-09-21T11:46:11.771Z,19.74
2022-09-21T11:48:53.823Z,19.40
2022-09-21T11:51:42.531Z,19.03
2022-09-21T11:54:34.825Z,18.84
2022-09-21T11:57:11.165Z,18.70
2022-09-21T11:59:50.736Z,18.58
2022-09-21T12:02:44.329Z,18.34
2022-09-21T12:05:20.329Z,17.71
2022-09-21T12:08:16.521Z,17.71
2022-09-21T12:10:53.753Z,18.19
2022-09-21T12:13:31.915Z,18.68
2022-09-21T12:16:12.282Z,18.89
2022-09-21T12:18:48.053Z,19.00
2022-09-21T12:21:22.109Z,19.20
2022-09-21T12:23:53.154Z,19.04
2022-09-21T12:26:26.133Z,18.89
2022-09-21T12:29:00.957Z,19.07
2022-09-21T12:31:36.206Z,19.19
2022-09-21T12:34:10.271Z,18.94
2022-09-21T12:36:42.809Z,18.77
2022-09-21T12:39:20.355Z,19.08
2022-09-21T12:41:55.449Z,19.29
2022-09-21T12:44:33.611Z,18.80
2022-09-21T12:47:10.040Z,18.17
2022-09-21T12:49:42.605Z,17.47
2022-09-21T12:52:16.048Z,17.21
2022-09-21T12:54:51.989Z,17.18
2022-09-21T12:57:49.122Z,17.68
2022-09-21T13:00:22.062Z,18.31
2022-09-21T13:02:55.149Z,18.82
2022-09-21T13:05:38.651Z,18.99
2022-09-21T13:08:13.247Z,19.24
2022-09-21T13:10:44.662Z,19.04
2022-09-21T13:13:24.443Z,18.99
2022-09-21T13:15:53.859Z,19.11
2022-09-21T13:18:25.717Z,19.36
2022-09-21T13:20:54.340Z,19.53
2022-09-21T13:23:35.235Z,19.85
2022-09-21T13:26:05.822Z,20.26
2022-09-21T13:29:03.544Z,20.40
2022-09-21T13:31:43.223Z,19.87
2022-09-21T13:34:33.348Z,19.89
2022-09-21T13:37:34.158Z,19.51
2022-09-21T13:40:38.683Z,19.25
2022-09-21T13:43:47.978Z,19.16
2022-09-21T13:46:49.532Z,19.39
2022-09-21T13:49:22.881Z,19.53
2022-09-21T13:51:58.287Z,19.82
2022-09-21T13:54:30.822Z,19.75
2022-09-21T13:57:08.582Z,19.66
2022-09-21T13:59:39.239Z,19.27
2022-09-21T14:02:25.184Z,19.36
2022-09-21T14:04:53.192Z,19.44
2022-09-21T14:07:21.196Z,19.05
2022-09-21T14:09:57.301Z,19.23
2022-09-21T14:12:29.529Z,19.30
2022-09-21T14:15:31.453Z,19.27
2022-09-21T14:18:36.723Z,19.01
2022-09-21T14:21:18.879Z,19.02
2022-09-21T14:24:20.156Z,18.88
2022-09-21T14:26:56.086Z,19.01
2022-09-21T14:29:29.016Z,19.01
2022-09-21T14:32:00.834Z,19.16
2022-09-21T14:34:36.684Z,19.19
2022-09-21T14:37:12.609Z,19.34
2022-09-21T14:39:45.905Z,19.47
2022-09-21T14:42:19.423Z,19.76
2022-09-21T14:44:49.866Z,19.34
2022-09-21T14:47:38.037Z,19.79
2022-09-21T14:50:28.496Z,19.79
2022-09-21T14:53:28.079Z,18.96
2022-09-21T14:56:15.544Z,19.23
2022-09-21T14:58:58.848Z,19.01
2022-09-21T15:01:38.283Z,18.57
2022-09-21T15:04:24.290Z,18.06
2022-09-21T15:07:20.934Z,17.93
2022-09-21T15:10:32.373Z,17.84
2022-09-21T15:13:07.645Z,17.68
2022-09-21T15:15:41.274Z,17.54
2022-09-21T15:18:17.801Z,17.73
2022-09-21T15:20:46.137Z,17.76
2022-09-21T15:23:20.168Z,17.85
2022-09-21T15:25:59.439Z,17.88
2022-09-21T15:28:35.055Z,17.66
2022-09-21T15:31:10.075Z,17.58
2022-09-21T15:33:40.080Z,17.50
2022-09-21T15:36:09.548Z,17.51
2022-09-21T15:38:39.272Z,17.39
2022-09-21T15:41:11.484Z,17.24
2022-09-21T15:43:41.534Z,17.14
2022-09-21T15:46:13.452Z,17.13
2022-09-21T15:48:42.412Z,17.02
2022-09-21T15:51:15.208Z,16.88
2022-09-21T15:53:48.107Z,16.78
2022-09-21T15:56:20.636Z,16.72
2022-09-21T15:58:49.796Z,16.60
2022-09-21T16:01:21.441Z,16.52
2022-09-21T16:03:53.928Z,16.52
2022-09-21T16:06:27.111Z,16.42
2022-09-21T16:08:56.635Z,16.33
2022-09-21T16:11:35.775Z,16.30
2022-09-21T16:14:27.137Z,16.21
2022-09-21T16:17:21.604Z,16.05
2022-09-21T16:20:22.903Z,15.99
2022-09-21T16:22:55.309Z,15.83
2022-09-21T16:25:32.647Z,15.73
2022-09-21T16:28:02.381Z,15.61
2022-09-21T16:30:48.665Z,15.57
2022-09-21T16:33:41.074Z,15.50
2022-09-21T16:36:38.005Z,15.38
2022-09-21T16:39:12.814Z,15.25
2022-09-21T16:41:48.208Z,15.18
2022-09-21T16:44:20.781Z,15.04
2022-09-21T16:46:51.862Z,14.86
2022-09-21T16:49:21.743Z,14.76
2022-09-21T16:51:50.459Z,14.62
2022-09-21T16:54:20.044Z,14.49
2022-09-21T16:56:49.083Z,14.32
2022-09-21T16:59:19.477Z,14.15
2022-09-21T17:01:55.372Z,13.98
2022-09-21T17:04:25.742Z,13.80
2022-09-21T17:06:55.059Z,13.66
2022-09-21T17:09:29.178Z,13.47
2022-09-21T17:12:00.194Z,13.31
2022-09-21T17:14:34.908Z,13.14
2022-09-21T17:17:05.672Z,12.94
2022-09-21T17:19:34.735Z,12.78
2022-09-21T17:22:03.655Z,12.62
2022-09-21T17:24:49.198Z,12.49
2022-09-21T17:27:19.840Z,12.32
2022-09-21T17:29:49.183Z,12.23
2022-09-21T17:32:19.946Z,12.04
2022-09-21T17:34:50.200Z,11.91
2022-09-21T17:37:17.821Z,11.74
2022-09-21T17:39:46.261Z,11.62
2022-09-21T17:42:18.743Z,11.49
2022-09-21T17:45:12.319Z,11.37
2022-09-21T17:47:40.738Z,11.19
2022-09-21T17:50:22.878Z,11.06
2022-09-21T17:53:08.790Z,10.96
2022-09-21T17:55:37.094Z,10.86
2022-09-21T17:58:14.768Z,10.73
2022-09-21T18:00:50.565Z,10.58
2022-09-21T18:03:22.320Z,10.49
2022-09-21T18:05:52.663Z,10.40
2022-09-21T18:08:20.863Z,10.24
2022-09-21T18:10:58.261Z,10.24
2022-09-21T18:13:38.118Z,10.16
2022-09-21T18:16:21.232Z,10.00
2022-09-21T18:18:56.236Z,10.03
2022-09-21T18:21:27.870Z,9.94
2022-09-21T18:24:22.501Z,9.86
2022-09-21T18:26:52.467Z,9.83
2022-09-21T18:29:39.387Z,9.76
2022-09-21T18:32:26.532Z,9.67
2022-09-21T18:35:21.847Z,9.56
2022-09-21T18:38:18.876Z,9.53
2022-09-21T18:41:21.330Z,9.51
2022-09-21T18:44:14.655Z,9.46
2022-09-21T18:47:10.794Z,9.30
2022-09-21T18:50:06.226Z,9.22
2022-09-21T18:53:02.367Z,9.14
2022-09-21T18:55:52.080Z,9.03
2022-09-21T18:58:41.532Z,9.01
2022-09-21T19:01:33.157Z,9.07
2022-09-21T19:04:21.591Z,9.15
2022-09-21T19:07:21.048Z,9.01
2022-09-21T19:10:16.177Z,9.24
2022-09-21T19:13:27.830Z,9.20
2022-09-21T19:16:24.912Z,9.14
2022-09-21T19:19:25.517Z,9.12
2022-09-21T19:22:20.153Z,9.09
2022-09-21T19:25:17.110Z,9.09
2022-09-21T19:28:22.414Z,9.11
2022-09-21T19:31:12.611Z,9.18
2022-09-21T19:34:06.507Z,9.17
2022-09-21T19:36:57.067Z,9.21
2022-09-21T19:39:46.783Z,9.28
2022-09-21T19:42:42.354Z,9.34
2022-09-21T19:45:36.859Z,9.41
2022-09-21T19:48:28.439Z,9.40
2022-09-21T19:51:21.054Z,9.30
2022-09-21T19:54:31.945Z,9.58
2022-09-21T19:57:40.498Z,9.65
2022-09-21T20:00:28.759Z,9.66
2022-09-21T20:03:27.013Z,9.67
2022-09-21T20:06:21.439Z,9.70
2022-09-21T20:09:15.770Z,9.75
2022-09-21T20:12:10.990Z,9.70
2022-09-21T20:15:11.668Z,9.75
2022-09-21T20:18:05.324Z,9.71
2022-09-21T20:20:53.708Z,9.62
2022-09-21T20:23:42.536Z,9.54
2022-09-21T20:26:30.941Z,9.54
2022-09-21T20:29:19.925Z,9.44
2022-09-21T20:32:10.501Z,9.43
2022-09-21T20:34:58.961Z,9.41
2022-09-21T20:37:47.377Z,9.38
2022-09-21T20:40:35.715Z,9.30
2022-09-21T20:43:30.280Z,9.26
2022-09-21T20:46:20.413Z,9.26
2022-09-21T20:49:09.709Z,9.23
2022-09-21T20:51:59.182Z,9.25
2022-09-21T20:54:49.581Z,9.22
2022-09-21T20:57:38.189Z,9.12
2022-09-21T21:00:26.666Z,9.10
2022-09-21T21:03:14.577Z,9.10
2022-09-21T21:06:11.495Z,9.10
2022-09-21T21:08:59.636Z,9.22
2022-09-21T21:11:47.620Z,9.29
2022-09-21T21:14:35.655Z,9.20
2022-09-21T21:17:23.622Z,9.27
2022-09-21T21:20:11.843Z,9.28
2022-09-21T21:23:05.804Z,9.35
2022-09-21T21:25:55.683Z,9.40
2022-09-21T21:28:43.587Z,9.41
2022-09-21T21:31:31.994Z,9.33
2022-09-21T21:34:19.858Z,9.29
2022-09-21T21:37:08.724Z,9.31
2022-09-21T21:39:58.440Z,9.34
2022-09-21T21:42:46.884Z,9.33
2022-09-21T21:45:34.808Z,9.32
2022-09-21T21:48:22.935Z,9.34
2022-09-21T21:51:10.768Z,9.42
2022-09-21T21:53:58.711Z,9.42
2022-09-21T21:56:48.016Z,9.39
2022-09-21T21:59:36.163Z,9.45
2022-09-21T22:02:24.440Z,9.42
2022-09-21T22:05:12.394Z,9.34
2022-09-21T22:08:00.285Z,9.39
2022-09-21T22:10:50.167Z,9.42
2022-09-21T22:13:41.017Z,9.39
2022-09-21T22:16:30.236Z,9.47
2022-09-21T22:19:18.940Z,9.50
2022-09-21T22:22:06.812Z,9.53
2022-09-21T22:24:55.068Z,9.47
2022-09-21T22:27:42.966Z,9.49
2022-09-21T22:30:32.483Z,9.49
2022-09-21T22:33:20.354Z,9.46
2022-09-21T22:36:10.129Z,9.47
2022-09-21T22:38:58.456Z,9.52
2022-09-21T22:41:46.349Z,9.48
2022-09-21T22:44:34.226Z,9.54
2022-09-21T22:47:23.470Z,9.54
2022-09-21T22:50:11.311Z,9.56
2022-09-21T22:52:59.176Z,9.62
2022-09-21T22:55:47.120Z,9.63
2022-09-21T22:58:36.289Z,9.60
2022-09-21T23:01:26.278Z,9.60
2022-09-21T23:04:15.650Z,9.54
2022-09-21T23:07:03.601Z,9.52
2022-09-21T23:09:51.516Z,9.54
2022-09-21T23:12:39.381Z,9.48
2022-09-21T23:15:27.310Z,9.44
2022-09-21T23:18:15.170Z,9.44
2022-09-21T23:21:06.288Z,9.20
2022-09-21T23:23:56.004Z,9.41
2022-09-21T23:26:44.019Z,9.34
2022-09-21T23:29:32.352Z,9.46
2022-09-21T23:32:20.231Z,9.38
2022-09-21T23:35:08.736Z,9.39
2022-09-21T23:37:57.965Z,9.35
2022-09-21T23:40:45.915Z,9.36
2022-09-21T23:43:35.438Z,9.28
2022-09-21T23:46:25.553Z,9.29
2022-09-21T23:49:13.536Z,9.34
2022-09-21T23:52:02.332Z,9.30
2022-09-21T23:54:51.592Z,9.29
2022-09-21T23:57:39.473Z,9.21
